Latest Weather Observations for Goondiwindi

IDN60801

Issued at 2:53 pm EDT Tuesday 29 November 2022 (issued every 10 minutes, with the page automatically refreshed every 10 minutes)

About weather observations | Map of weather stations | Latest weather observations for NSW | Other Formats
Station Details ID: 041560 Name: GOONDIWINDI AIRPORT Lat: -28.52 Lon: 150.32 Height: 216.45 m
Data from the previous 72 hours. | See also: Recent months for locations in New South Wales
Date/Time
EDT
Temp
°C
App
Temp
°C
Dew
Point
°C
Rel
Hum
%
Delta-T
°C
Wind Press
QNH
hPa
Press
MSL
hPa
Rain since
9am
mm
Dir  Spd
km/h
Gust
km/h
Spd
kts
Gust
kts
29/02:30pm 32.3 27.7 5.7 19 14.3 SW 19 32 10 17 1008.4 1007.3 0.0
29/02:00pm 31.6 27.8 5.9 20 13.9 SSW 15 28 8 15 1008.6 1007.5 0.0
29/01:30pm 32.4 28.4 6.6 20 14.1 SSW 17 30 9 16 1009.1 1008.0 0.0
29/01:00pm 30.2 26.0 5.5 21 13.1 SSE 17 24 9 13 1009.4 1008.3 0.0
29/12:30pm 30.3 25.8 6.2 22 12.9 SSW 19 32 10 17 1009.9 1008.8 0.0
29/12:00pm 30.5 26.6 7.0 23 12.8 SSW 17 28 9 15 1010.3 1009.2 0.0
29/11:30am 30.1 25.9 7.3 24 12.5 SSW 19 26 10 14 1010.5 1009.4 0.0
29/11:00am 28.9 25.1 7.5 26 11.7 S 17 24 9 13 1010.7 1009.6 0.0
29/10:30am 28.8 25.0 7.4 26 11.6 S 17 26 9 14 1010.7 1009.6 0.0
29/10:00am 28.3 24.3 8.1 28 11.1 SSE 19 28 10 15 1010.8 1009.7 0.0
29/09:30am 27.3 22.9 7.2 28 10.8 S 20 26 11 14 1010.8 1009.7 0.0
29/09:00am 26.5 24.0 8.0 31 10.0 SSE 11 15 6 8 1010.7 1009.6 0.0
29/08:30am 24.9 21.8 8.8 36 8.8 SSE 15 20 8 11 1010.7 1009.6 0.0
29/08:00am 23.8 21.1 9.0 39 8.1 SSE 13 19 7 10 1010.4 1009.3 0.0
29/07:30am 22.5 20.2 9.0 42 7.3 SSE 11 13 6 7 1010.0 1008.9 0.0
29/07:00am 20.4 19.0 9.0 48 6.1 S 6 7 3 4 1009.9 1008.8 0.0
29/06:30am 18.4 17.1 9.2 55 4.9 SSW 6 7 3 4 1009.7 1008.6 0.0
29/06:00am 17.9 16.4 8.5 54 4.9 SSW 6 7 3 4 1009.4 1008.3 0.0
29/05:30am 17.6 16.1 8.5 55 4.7 SW 6 7 3 4 1009.0 1007.9 0.0
29/05:00am 18.9 17.3 8.0 49 5.7 SW 6 7 3 4 1008.7 1007.6 0.0
29/04:30am 19.8 17.6 7.9 46 6.2 SW 9 11 5 6 1008.4 1007.3 0.0
29/04:00am 20.7 18.5 7.7 43 6.8 SSW 9 13 5 7 1008.4 1007.3 0.0
29/03:30am 20.5 18.3 7.8 44 6.6 SSW 9 13 5 7 1008.2 1007.1 0.0
29/03:00am 21.0 19.0 7.3 41 7.1 SSW 7 9 4 5 1008.0 1006.9 0.0
29/02:30am 21.1 19.2 7.7 42 7.0 SSW 7 11 4 6 1007.9 1006.8 0.0
29/02:00am 21.3 19.7 7.9 42 7.1 S 6 6 3 3 1007.9 1006.8 0.0
29/01:30am 22.0 21.1 7.8 40 7.5 SW 2 4 1 2 1008.1 1007.0 0.0
29/01:00am 23.4 21.5 7.5 36 8.4 S 7 11 4 6 1008.1 1007.0 0.0
29/12:30am 24.0 21.4 7.6 35 8.7 SSW 11 19 6 10 1008.4 1007.3 0.0
29/12:00am 24.4 21.9 8.0 35 8.8 SSW 11 17 6 9 1008.3 1007.2 0.0
 
Date/Time
EDT
Temp
°C
App
Temp
°C
Dew
Point
°C
Rel
Hum
%
Delta-T
°C
Wind Press
QNH
hPa
Press
MSL
hPa
Rain since
9am
mm
Dir  Spd
km/h
Gust
km/h
Spd
kts
Gust
kts
28/11:30pm 25.1 22.3 8.6 35 9.0 SSW 13 22 7 12 1008.2 1007.1 0.0
28/11:00pm 25.5 22.6 9.7 37 8.8 SSW 15 20 8 11 1007.6 1006.5 0.0
28/10:30pm 25.3 24.0 11.1 41 8.1 S 9 15 5 8 1007.3 1006.2 0.0
28/10:00pm 25.8 25.0 11.6 41 8.2 S 7 13 4 7 1006.8 1005.7 0.0
28/09:30pm 26.3 23.8 11.2 38 8.6 SW 15 20 8 11 1006.4 1005.3 0.0
28/09:00pm 26.7 24.7 11.6 39 8.7 SW 13 19 7 10 1005.9 1004.7 0.0
28/08:30pm 27.3 25.7 11.7 37 9.0 SSW 11 13 6 7 1005.5 1004.3 0.0
28/08:00pm 28.1 26.1 11.6 36 9.6 SSW 13 19 7 10 1005.1 1004.0 0.0
28/07:30pm 28.9 27.5 12.3 36 9.8 SSW 11 17 6 9 1004.7 1003.6 0.0
28/07:00pm 29.7 26.6 12.2 34 10.4 SSW 20 28 11 15 1004.4 1003.3 0.0
28/06:30pm 30.4 27.3 12.3 33 10.7 SW 20 30 11 16 1004.1 1003.0 0.0
28/06:00pm 31.3 28.2 12.2 31 11.4 SW 20 32 11 17 1003.8 1002.7 0.0
28/05:30pm 31.8 28.3 12.1 30 11.7 SW 22 35 12 19 1003.6 1002.5 0.0
28/05:00pm 33.1 28.3 11.6 27 12.8 W 28 39 15 21 1003.6 1002.5 0.0
28/04:30pm 34.0 29.6 11.8 26 13.3 WSW 26 39 14 21 1003.5 1002.4 0.0
28/04:00pm 33.5 29.4 11.4 26 13.1 SW 24 39 13 21 1003.5 1002.4 0.0
28/03:30pm 34.0 30.0 11.8 26 13.3 WSW 24 35 13 19 1004.0 1002.9 0.0
28/03:00pm 32.5 27.9 12.2 29 12.2 WSW 28 41 15 22 1004.1 1003.0 0.0
28/02:30pm 34.1 30.5 11.9 26 13.3 WSW 22 33 12 18 1004.2 1003.1 0.0
28/02:00pm 34.5 30.6 12.2 26 13.5 W 24 35 13 19 1004.4 1003.3 0.0
28/01:30pm 32.0 29.2 13.2 31 11.4 WSW 20 32 11 17 1004.8 1003.7 0.0
28/01:00pm 33.2 31.6 16.1 35 10.9 W 19 32 10 17 1005.1 1004.0 0.0
28/12:30pm 32.0 30.7 16.7 40 9.7 W 19 32 10 17 1005.5 1004.3 0.0
28/12:00pm 31.8 31.7 18.7 45 8.6 W 17 26 9 14 1005.8 1004.6 0.0
28/11:30am 30.2 30.8 18.6 49 7.5 W 13 22 7 12 1006.0 1004.8 0.0
28/11:00am 29.7 30.4 18.8 52 7.1 W 13 24 7 13 1006.2 1005.1 0.0
28/10:30am 28.6 29.0 19.0 56 6.3 WNW 15 28 8 15 1006.3 1005.2 0.0
28/10:00am 27.2 27.1 18.8 60 5.4 NW 17 24 9 13 1006.7 1005.6 0.0
28/09:30am 26.2 26.2 18.9 64 4.7 NW 17 22 9 12 1007.0 1005.9 0.0
28/09:00am 24.8 24.7 18.7 69 3.9 NNW 17 24 9 13 1006.9 1005.8 0.0
28/08:30am 23.6 24.2 18.7 74 3.1 NNW 13 15 7 8 1006.8 1005.7 0.0
28/08:00am 22.8 23.4 18.6 77 2.7 NNW 13 20 7 11 1006.7 1005.6 0.0
28/07:30am 22.0 23.6 18.2 79 2.4 N 7 11 4 6 1006.6 1005.5 0.0
28/07:00am 21.3 22.8 17.5 79 2.4 NE 6 7 3 4 1006.4 1005.3 0.0
28/06:30am 20.4 21.7 17.2 82 2.0 NE 6 6 3 3 1006.2 1005.1 0.0
28/06:00am 19.8 21.0 16.8 83 1.8 NNE 6 7 3 4 1006.1 1005.0 0.0
28/05:30am 20.1 21.1 16.9 82 2.0 NE 7 11 4 6 1005.7 1004.5 0.0
28/05:00am 19.9 20.5 16.9 83 1.8 NNE 9 11 5 6 1005.5 1004.3 0.0
28/04:30am 20.2 21.2 16.8 81 2.1 NNE 7 11 4 6 1005.4 1004.2 0.0
28/04:00am 21.0 21.6 16.8 77 2.6 N 9 13 5 7 1005.4 1004.2 0.0
28/03:30am 20.9 21.2 16.9 78 2.5 N 11 13 6 7 1005.6 1004.4 0.0
28/03:00am 21.4 20.8 16.6 74 2.9 N 15 20 8 11 1005.7 1004.5 0.0
28/02:30am 22.2 22.8 16.7 71 3.4 NNW 9 17 5 9 1006.2 1005.1 0.0
28/02:00am 22.4 22.0 16.2 68 3.8 NNW 13 20 7 11 1006.3 1005.2 0.0
28/01:30am 22.6 21.0 15.9 66 4.1 NNW 19 24 10 13 1006.1 1005.0 0.0
28/01:00am 23.2 22.5 15.5 62 4.7 NNW 13 19 7 10 1006.2 1005.1 0.0
28/12:30am 23.4 22.7 15.5 61 4.8 NNW 13 17 7 9 1006.6 1005.5 0.0
28/12:00am 23.4 22.3 15.2 60 5.0 N 15 20 8 11 1006.0 1004.8 0.0
 
Date/Time
EDT
Temp
°C
App
Temp
°C
Dew
Point
°C
Rel
Hum
%
Delta-T
°C
Wind Press
QNH
hPa
Press
MSL
hPa
Rain since
9am
mm
Dir  Spd
km/h
Gust
km/h
Spd
kts
Gust
kts
27/11:30pm 23.8 22.2 15.0 57 5.3 N 17 20 9 11 1006.4 1005.3 0.0
27/11:00pm 23.9 22.9 14.6 56 5.6 N 13 17 7 9 1006.8 1005.7 0.0
27/10:30pm 24.0 22.3 14.7 56 5.6 N 17 24 9 13 1006.5 1005.4 0.0
27/10:00pm 23.9 21.8 14.6 56 5.6 N 19 28 10 15 1006.2 1005.1 0.0
27/09:30pm 24.2 22.1 14.6 55 5.8 N 19 24 10 13 1006.1 1005.0 0.0
27/09:00pm 24.8 21.7 14.6 53 6.1 N 24 35 13 19 1005.8 1004.6 0.0
27/08:30pm 25.6 22.8 14.4 50 6.7 N 22 30 12 16 1005.7 1004.5 0.0
27/08:00pm 26.9 23.0 14.3 46 7.6 N 28 41 15 22 1005.2 1004.1 0.0
27/07:30pm 27.4 26.1 14.8 46 7.7 NE 15 24 8 13 1004.7 1003.6 0.0
27/07:00pm 28.6 25.8 14.4 41 8.7 NNE 22 32 12 17 1004.4 1003.3 0.0
27/06:30pm 29.7 27.4 14.7 40 9.2 NNE 20 33 11 18 1004.2 1003.1 0.0
27/06:00pm 29.3 26.0 13.9 39 9.3 NNE 24 33 13 18 1004.2 1003.1 0.0
27/05:30pm 29.8 26.0 13.5 36 9.8 NNE 26 41 14 22 1004.0 1002.9 0.0
27/05:00pm 31.4 28.4 13.6 33 10.8 NNE 22 33 12 18 1004.1 1003.0 0.0
27/04:30pm 31.0 28.0 11.9 31 11.3 N 19 32 10 17 1004.4 1003.3 0.0
27/04:00pm 31.3 27.6 12.6 31 11.2 N 24 33 13 18 1004.6 1003.5 0.0
27/03:30pm 31.1 27.6 13.4 34 10.7 N 24 32 13 17 1005.0 1003.9 0.0
27/03:00pm 29.7 26.2 13.5 37 9.8 NNE 24 32 13 17 1005.7 1004.5 0.0
27/02:30pm 28.4 25.1 13.9 41 8.7 NNE 24 33 13 18 1006.0 1004.8 0.0
27/02:00pm 27.1 23.7 13.8 44 8.0 NNE 24 30 13 16 1006.5 1005.4 0.0
27/01:30pm 26.1 23.5 13.2 44 7.6 N 19 26 10 14 1007.3 1006.2 0.0
27/01:00pm 26.9 22.9 12.9 42 8.3 N 26 35 14 19 1007.6 1006.5 0.0
27/12:30pm 27.1 25.1 13.8 44 8.0 N 17 30 9 16 1007.7 1006.6 0.0
27/12:00pm 25.8 23.7 14.6 50 6.8 N 19 26 10 14 1007.6 1006.5 0.0
27/11:30am 27.0 23.8 13.0 42 8.3 N 22 30 12 16 1007.3 1006.2 0.0
27/11:00am 26.7 24.7 13.8 45 7.7 N 17 28 9 15 1007.7 1006.6 0.0
27/10:30am 26.8 23.0 13.5 44 7.9 N 26 33 14 18 1007.5 1006.4 0.0
27/10:00am 26.5 23.3 14.3 47 7.4 N 24 35 13 19 1007.5 1006.4 0.0
27/09:30am 25.5 22.3 14.3 50 6.7 NNE 24 35 13 19 1007.8 1006.7 0.0
27/09:00am 25.1 22.2 15.1 53 6.1 NNE 24 32 13 17 1008.0 1006.9 0.0
27/08:30am 24.4 22.6 16.1 60 5.1 NNE 20 30 11 16 1008.3 1007.2 0.0
27/08:00am 23.0 22.1 15.8 64 4.4 NE 15 24 8 13 1008.3 1007.2 0.0
27/07:30am 20.4 19.8 15.6 74 2.9 NE 13 19 7 10 1008.2 1007.1 0.0
27/07:00am 19.3 19.4 15.6 79 2.2 ENE 9 15 5 8 1008.0 1006.9 0.0
27/06:30am 18.3 18.7 15.2 82 1.8 ENE 7 11 4 6 1007.8 1006.7 0.0
27/06:00am 18.1 18.5 15.4 84 1.6 ENE 7 9 4 5 1007.8 1006.7 0.0
27/05:30am 17.8 18.1 15.1 84 1.6 ENE 7 11 4 6 1007.7 1006.6 0.0
27/05:00am 17.3 17.7 14.8 85 1.5 ENE 6 7 3 4 1007.8 1006.7 0.0
27/04:30am 18.1 18.5 15.2 83 1.7 ENE 7 9 4 5 1007.7 1006.6 0.0
27/04:00am 18.5 18.5 15.2 81 2.0 ENE 9 11 5 6 1007.6 1006.5 0.0
27/03:30am 18.4 18.3 14.9 80 2.1 NE 9 11 5 6 1007.6 1006.5 0.0
27/03:00am 17.7 17.7 14.2 80 2.0 ENE 7 11 4 6 1007.8 1006.7 0.0
27/02:30am 17.8 17.1 13.1 74 2.7 E 9 11 5 6 1008.1 1007.0 0.0
27/02:00am 18.3 17.4 12.5 69 3.3 ENE 9 11 5 6 1008.3 1007.2 0.0
27/01:30am 18.9 17.7 11.7 63 4.0 ENE 9 13 5 7 1008.7 1007.6 0.0
27/01:00am 19.6 17.4 10.9 57 4.8 NE 13 20 7 11 1008.9 1007.8 0.0
27/12:30am 16.1 14.9 9.5 65 3.5 N 6 7 3 4 1008.3 1007.2 0.0
27/12:00am 17.0 16.8 9.2 60 4.1 CALM 0 0 0 0 1008.6 1007.5 0.0
 
Date/Time
EDT
Temp
°C
App
Temp
°C
Dew
Point
°C
Rel
Hum
%
Delta-T
°C
Wind Press
QNH
hPa
Press
MSL
hPa
Rain since
9am
mm
Dir  Spd
km/h
Gust
km/h
Spd
kts
Gust
kts
26/11:30pm 17.7 17.5 9.1 57 4.5 CALM 0 0 0 0 1008.8 1007.7 0.0
26/11:00pm 18.6 18.3 8.6 52 5.2 CALM 0 0 0 0 1009.0 1007.9 0.0
26/10:30pm 19.3 19.1 9.2 52 5.4 CALM 0 0 0 0 1009.0 1007.9 0.0
26/10:00pm 20.0 19.7 8.7 48 6.0 CALM 0 0 0 0 1009.0 1007.9 0.0
26/09:30pm 21.1 20.6 8.0 43 6.9 CALM 0 0 0 0 1008.9 1007.8 0.0
26/09:00pm 22.4 22.1 8.5 41 7.4 CALM 0 0 0 0 1008.8 1007.7 0.0
26/08:30pm 22.7 21.2 6.9 36 8.2 NW 4 4 2 2 1008.8 1007.7 0.0
26/08:00pm 24.4 22.5 6.6 32 9.3 NW 6 6 3 3 1008.6 1007.5 0.0
26/07:30pm 27.9 25.7 5.5 24 11.7 WNW 6 7 3 4 1008.3 1007.2 0.0
26/07:00pm 30.6 27.3 4.4 19 13.7 WNW 11 13 6 7 1008.3 1007.2 0.0
26/06:30pm 32.1 28.9 3.1 16 14.9 WNW 9 15 5 8 1008.2 1007.1 0.0
26/06:00pm 32.6 29.3 2.6 15 15.4 W 9 17 5 9 1008.1 1007.0 0.0
26/05:30pm 33.0 31.1 2.9 15 15.5 N 2 9 1 5 1008.0 1006.9 0.0
26/05:00pm 33.2 30.4 2.1 14 15.9 WNW 6 13 3 7 1008.2 1007.1 0.0
26/04:30pm 32.7 30.2 3.6 16 15.2 NW 6 11 3 6 1008.3 1007.2 0.0
26/04:00pm 32.6 29.7 2.6 15 15.4 NNW 7 13 4 7 1008.5 1007.4 0.0

Other formats

Comma delimited format used in spreadsheet applications
http://www.bom.gov.au/fwo/IDN60801/IDN60801.99468.axf

JavaScript Object Notation format (JSON) in row-major order
http://www.bom.gov.au/fwo/IDN60801/IDN60801.99468.json

Data quality

Most of these data are generated automatically and are frequently updated. Quality checks on data are not normally performed. It is possible for incorrect values to appear. Refer to information at About Latest Weather Observations and please check the disclaimer before using these data.